Latest Weather Observations for Newman Airport

IDW60801

Issued at 6:05 pm WST Tuesday 23 September 2014 (issued every 30 minutes, with the page automatically refreshed every 10 minutes)

About weather observations | Map of weather stations | Latest weather observations for WA | Other Formats
Station Details ID: 007176 Name: NEWMAN AERO Lat: -23.42 Lon: 119.80 Height: 524.0 m
Data from the previous 72 hours. | See also: Recent months at Newman Airport
Date/Time
WST
Temp
°C
App
Temp
°C
Dew
Point
Rel
Hum
%
Delta-T
°C
Wind Press
QNH
hPa
Press
MSL
hPa
Rain
since 9 am
mm
Dir
 
Spd
km/h
Gust
km/h
Spd
kts
Gust
kts
23/06:00pm 23.3 17.6 -7.7 12 12.5 SSE 15 24 8 13 1019.8 1017.6 0.0
23/05:30pm 24.3 18.2 -8.0 11 13.0 SE 17 24 9 13 1019.5 1017.2 0.0
23/05:00pm 24.7 18.2 -7.7 11 13.2 SE 19 28 10 15 1019.2 1017.0 0.0
23/04:30pm 25.2 18.6 -7.3 11 13.4 SE 20 30 11 16 1019.0 1016.8 0.0
23/04:00pm 25.3 18.7 -7.2 11 13.4 SSE 20 32 11 17 1018.9 1016.7 0.0
23/03:30pm 24.9 18.5 -6.4 12 13.1 SSE 19 35 10 19 1018.9 1016.7 0.0
23/03:00pm 24.7 18.8 -5.5 13 12.8 SSE 17 28 9 15 1018.9 1016.7 0.0
23/02:30pm 24.7 18.4 -5.5 13 12.9 ESE 19 26 10 14 1019.1 1016.9 0.0
23/02:00pm 24.6 17.2 -3.7 15 12.4 SSE 26 33 14 18 1019.3 1017.1 0.0
23/01:30pm 23.7 17.6 -2.0 18 11.6 SE 20 33 11 18 1019.7 1017.4 0.0
23/01:00pm 23.5 17.4 -2.2 18 11.5 SE 20 35 11 19 1020.2 1018.0 0.0
23/12:30pm 22.7 15.8 -2.8 18 11.2 SE 24 30 13 16 1020.6 1018.4 0.0
23/12:00pm 21.6 14.9 -1.0 22 10.2 SE 24 35 13 19 1021.2 1019.0 0.0
23/11:30am 21.0 15.2 -0.3 24 9.7 S 20 35 11 19 1021.7 1019.5 0.0
23/11:00am 19.4 13.5 -0.6 26 8.9 SSE 20 32 11 17 1022.2 1020.0 0.0
23/10:30am 18.7 12.3 0.8 30 8.2 SSE 24 43 13 23 1022.5 1020.3 0.0
23/10:00am 18.0 11.6 1.1 32 7.7 SSE 24 37 13 20 1022.8 1020.6 0.0
23/09:30am 18.0 11.7 1.5 33 7.6 SE 24 35 13 19 1023.0 1020.8 0.0
23/09:00am 16.3 10.0 1.6 37 6.7 SSE 24 35 13 19 1023.1 1021.0 0.0
23/08:30am 15.9 9.0 2.3 40 6.3 SE 28 39 15 21 1023.1 1021.0 0.0
23/08:00am 14.3 7.7 1.9 43 5.6 SE 26 43 14 23 1023.2 1021.1 0.0
23/07:30am 14.3 8.0 1.6 42 5.7 SE 24 35 13 19 1023.0 1020.8 0.0
23/07:00am 12.9 6.9 1.3 45 5.1 SSE 22 33 12 18 1022.6 1020.4 0.0
23/06:30am 12.2 6.6 1.2 47 4.8 SSE 20 28 11 15 1022.2 1020.0 0.0
23/06:00am 11.7 6.6 0.8 47 4.7 SSE 17 20 9 11 1022.0 1019.8 0.0
23/05:30am 12.1 6.1 0.8 46 4.9 SSE 22 30 12 16 1021.6 1019.4 0.0
23/05:00am 11.8 7.0 0.3 45 4.9 S 15 20 8 11 1021.5 1019.3 0.0
23/04:30am 11.9 7.5 0.1 44 5.0 S 13 19 7 10 1021.2 1019.0 0.0
23/04:00am 12.2 7.3 -0.3 42 5.2 S 15 20 8 11 1020.9 1018.7 0.0
23/03:30am 12.5 7.6 -0.4 41 5.4 S 15 19 8 10 1020.5 1018.3 0.0
23/03:00am 12.9 8.0 -0.7 39 5.7 S 15 20 8 11 1020.4 1018.2 0.0
23/02:30am 13.4 8.0 -1.0 37 6.0 S 17 26 9 14 1020.5 1018.3 0.0
23/02:00am 14.0 8.2 -1.2 35 6.4 S 19 28 10 15 1020.6 1018.4 0.0
23/01:30am 14.4 8.6 -1.6 33 6.7 S 19 30 10 16 1020.9 1018.7 0.0
23/01:00am 15.0 9.1 -2.0 31 7.1 S 19 26 10 14 1021.0 1018.8 0.0
23/12:30am 15.2 10.4 -2.2 30 7.2 S 13 19 7 10 1021.1 1018.9 0.0
23/12:00am 15.3 10.1 -2.6 29 7.4 S 15 20 8 11 1021.0 1018.8 0.0
 
Date/Time
WST
Temp
°C
App
Temp
°C
Dew
Point
Rel
Hum
%
Delta-T
°C
Wind Press
QNH
hPa
Press
MSL
hPa
Rain
since 9 am
mm
Dir
 
Spd
km/h
Gust
km/h
Spd
kts
Gust
kts
22/11:30pm 15.9 10.3 -2.6 28 7.7 S 17 22 9 12 1021.1 1018.9 0.0
22/11:00pm 16.5 10.9 -2.5 27 7.9 S 17 20 9 11 1021.1 1018.9 0.0
22/10:30pm 17.1 11.6 -2.0 27 8.1 S 17 26 9 14 1021.2 1019.0 0.0
22/10:00pm 17.3 12.2 -1.9 27 8.2 S 15 22 8 12 1021.0 1018.8 0.0
22/09:30pm 17.7 12.7 -1.5 27 8.3 S 15 20 8 11 1020.8 1018.6 0.0
22/09:00pm 18.3 13.3 -1.0 27 8.4 SSW 15 19 8 10 1020.7 1018.5 0.0
22/08:30pm 18.6 14.4 -0.7 27 8.5 SW 11 17 6 9 1020.5 1018.3 0.0
22/08:00pm 19.1 14.6 -0.3 27 8.7 SW 13 19 7 10 1020.2 1018.0 0.0
22/07:30pm 19.8 14.0 -0.2 26 9.0 SW 20 26 11 14 1019.7 1017.4 0.0
22/07:00pm 20.3 14.5 -0.3 25 9.3 SW 20 32 11 17 1019.3 1017.1 0.0
22/06:30pm 20.8 14.5 -1.1 23 9.8 SW 22 32 12 17 1018.9 1016.7 0.0
22/06:00pm 21.5 14.0 -1.1 22 10.2 SW 28 39 15 21 1018.4 1016.2 0.0
22/05:30pm 22.5 16.1 -1.6 20 10.8 SW 22 37 12 20 1018.0 1015.7 0.0
22/05:00pm 23.4 17.0 -1.5 19 11.3 SW 22 37 12 20 1017.7 1015.4 0.0
22/04:30pm 23.5 16.1 -0.7 20 11.2 WSW 28 39 15 21 1017.4 1015.1 0.0
22/04:15pm 23.8 16.3 -1.2 19 11.4 SW 28 48 15 26 1017.1 1014.9 0.0
22/04:00pm 24.3 17.2 -1.5 18 11.8 WSW 26 43 14 23 1017.1 1014.9 0.0
22/03:30pm 24.4 17.0 -0.7 19 11.7 SW 28 39 15 21 1017.1 1014.9 0.0
22/03:12pm 23.7 15.9 -0.6 20 11.2 WSW 30 48 16 26 1017.1 1014.9 0.0
22/03:00pm 24.8 17.3 -1.1 18 12.0 WSW 28 37 15 20 1017.1 1014.9 0.0
22/02:39pm 23.9 16.2 -0.4 20 11.3 SW 30 48 16 26 1017.2 1015.0 0.0
22/02:30pm 23.7 15.8 -1.3 19 11.4 SW 30 43 16 23 1017.2 1015.0 0.0
22/02:00pm 24.3 17.3 -0.8 19 11.6 WSW 26 37 14 20 1017.4 1015.1 0.0
22/01:30pm 23.7 16.5 0.7 22 10.9 SW 28 44 15 24 1017.5 1015.2 0.0
22/01:00pm 23.0 15.6 1.9 25 10.2 SW 30 43 16 23 1017.7 1015.4 0.0
22/12:32pm 22.0 14.9 1.1 25 9.9 SW 28 46 15 25 1018.0 1015.7 0.0
22/12:30pm 22.6 15.1 1.0 24 10.2 SW 30 46 16 25 1018.0 1015.7 0.0
22/12:00pm 21.6 14.6 1.8 27 9.4 SW 28 46 15 25 1018.4 1016.2 0.0
22/11:55am 21.9 14.9 2.1 27 9.5 SW 28 46 15 25 1018.5 1016.3 0.0
22/11:30am 21.1 14.0 1.4 27 9.3 SSW 28 35 15 19 1018.8 1016.6 0.0
22/11:18am 20.9 13.4 1.2 27 9.2 WSW 30 48 16 26 1019.0 1016.8 0.0
22/11:00am 20.5 13.0 1.4 28 8.9 WSW 30 44 16 24 1019.2 1017.0 0.0
22/10:30am 19.9 12.1 1.8 30 8.5 SW 32 46 17 25 1019.7 1017.4 0.0
22/10:24am 20.0 12.9 1.4 29 8.7 SW 28 46 15 25 1019.8 1017.6 0.0
22/10:00am 19.1 11.5 2.9 34 7.7 SW 32 43 17 23 1020.1 1017.9 0.0
22/09:48am 18.3 10.7 2.6 35 7.4 WSW 32 54 17 29 1020.2 1018.0 0.0
22/09:30am 18.3 11.0 2.2 34 7.5 WSW 30 46 16 25 1020.3 1018.1 0.0
22/09:23am 18.2 11.2 2.1 34 7.5 SW 28 46 15 25 1020.3 1018.1 0.0
22/09:00am 17.6 9.8 2.0 35 7.2 SW 32 43 17 23 1020.3 1018.1 0.0
22/08:30am 16.7 10.0 3.4 41 6.3 WSW 28 43 15 23 1020.3 1018.1 0.0
22/08:00am 15.6 8.4 4.9 49 5.2 WSW 32 44 17 24 1020.1 1017.9 0.0
22/07:30am 15.2 7.7 6.2 55 4.5 SW 35 48 19 26 1020.0 1017.8 0.0
22/07:00am 15.0 9.2 8.0 63 3.6 SW 28 41 15 22 1019.7 1017.4 0.0
22/06:39am 14.6 8.8 7.9 64 3.4 SW 28 48 15 26 1019.3 1017.1 0.0
22/06:30am 14.5 9.9 8.2 66 3.2 SW 22 33 12 18 1019.1 1016.9 0.0
22/06:00am 14.4 10.3 8.8 69 2.9 SW 20 30 11 16 1018.6 1016.4 0.0
22/05:30am 14.5 11.1 9.1 70 2.8 SW 17 30 9 16 1018.2 1016.0 0.0
22/05:00am 14.9 9.6 9.7 71 2.8 SW 28 41 15 22 1018.1 1015.9 0.0
22/04:53am 15.0 9.6 9.6 70 2.9 SW 28 46 15 25 1017.9 1015.6 0.0
22/04:30am 15.6 10.4 10.4 71 2.8 SW 28 43 15 23 1017.6 1015.3 0.0
22/04:00am 16.2 10.2 12.0 76 2.3 SW 35 52 19 28 1017.0 1014.8 0.0
22/03:36am 18.5 13.4 13.1 71 3.1 SW 32 52 17 28 1016.5 1014.3 0.0
22/03:30am 18.6 13.9 13.2 71 3.1 SW 30 44 16 24 1016.5 1014.3 0.0
22/03:00am 20.0 15.7 14.4 70 3.3 WSW 30 46 16 25 1016.2 1013.9 0.0
22/02:56am 20.3 16.3 14.2 68 3.6 WSW 28 46 15 25 1016.1 1013.8 0.0
22/02:30am 20.6 16.8 14.7 69 3.5 WSW 28 41 15 22 1016.1 1013.8 0.0
22/02:20am 20.8 17.1 14.9 69 3.6 WSW 28 46 15 25 1016.1 1013.8 0.0
22/02:00am 20.9 17.6 15.0 69 3.6 WSW 26 37 14 20 1016.1 1013.8 0.0
22/01:39am 21.4 17.3 14.8 66 4.0 WSW 30 48 16 26 1015.9 1013.6 0.0
22/01:30am 21.9 17.3 14.5 63 4.4 WSW 32 48 17 26 1015.9 1013.6 0.0
22/01:00am 24.6 19.8 9.0 37 8.6 W 24 35 13 19 1015.5 1013.2 0.0
22/12:30am 25.1 19.6 7.7 33 9.5 W 26 41 14 22 1015.1 1012.9 0.0
22/12:00am 25.5 21.3 7.6 32 9.7 W 19 28 10 15 1015.4 1013.1 0.0
 
Date/Time
WST
Temp
°C
App
Temp
°C
Dew
Point
Rel
Hum
%
Delta-T
°C
Wind Press
QNH
hPa
Press
MSL
hPa
Rain
since 9 am
mm
Dir
 
Spd
km/h
Gust
km/h
Spd
kts
Gust
kts
21/11:30pm 26.3 21.9 7.4 30 10.3 W 20 32 11 17 1015.5 1013.2 0.0
21/11:00pm 26.9 21.7 7.4 29 10.6 W 24 35 13 19 1015.6 1013.3 0.0
21/10:30pm 27.4 22.9 6.8 27 11.2 W 20 32 11 17 1015.8 1013.5 0.0
21/10:00pm 28.2 22.5 5.1 23 12.2 W 24 39 13 21 1015.8 1013.5 0.0
21/09:30pm 29.7 23.9 2.1 17 14.0 WNW 22 32 12 17 1015.6 1013.3 0.0
21/09:00pm 30.2 24.0 -0.2 14 14.8 WNW 22 32 12 17 1015.4 1013.1 0.0
21/08:30pm 30.1 24.3 -1.3 13 15.0 NW 19 26 10 14 1015.1 1012.9 0.0
21/08:00pm 30.6 24.7 -0.9 13 15.2 NW 20 28 11 15 1014.9 1012.7 0.0
21/07:30pm 30.4 25.0 -1.1 13 15.2 NW 17 20 9 11 1014.6 1012.3 0.0
21/07:00pm 31.2 26.2 -1.5 12 15.7 NNW 15 22 8 12 1014.2 1011.9 0.0
21/06:30pm 32.0 26.1 -2.1 11 16.3 NW 19 28 10 15 1013.9 1011.6 0.0
21/06:00pm 32.7 25.8 -2.9 10 16.9 NW 24 37 13 20 1013.6 1011.3 0.0
21/05:30pm 33.6 25.8 -3.6 9 17.6 NW 28 39 15 21 1013.4 1011.1 0.0
21/05:08pm 34.2 26.3 -4.7 8 18.1 NW 28 46 15 25 1013.2 1011.0 0.0
21/05:00pm 34.5 28.1 -4.5 8 18.3 NW 20 28 11 15 1013.1 1010.9 0.0
21/04:30pm 34.8 27.7 -4.3 8 18.4 NNW 24 39 13 21 1013.1 1010.9 0.0
21/04:00pm 35.2 27.8 -4.0 8 18.6 NNW 26 37 14 20 1013.0 1010.8 0.0
21/03:30pm 35.5 27.5 -5.5 7 19.0 NNW 28 46 15 25 1013.4 1011.1 0.0
21/03:27pm 35.3 27.3 -5.7 7 19.0 NNW 28 46 15 25 1013.4 1011.1 0.0
21/03:00pm 35.7 29.4 -3.6 8 18.8 NNW 20 43 11 23 1013.6 1011.3 0.0
21/02:30pm 34.7 27.8 -2.8 9 18.1 NNW 24 35 13 19 1014.1 1011.8 0.0
21/02:00pm 35.0 30.4 -1.1 10 17.9 NNW 13 26 7 14 1014.3 1012.0 0.0
21/01:30pm 35.5 29.0 -2.2 9 18.5 NW 22 35 12 19 1014.9 1012.7 0.0
21/01:00pm 35.3 31.3 -2.3 9 18.3 WNW 9 37 5 20 1015.6 1013.3 0.0
21/12:30pm 34.7 29.3 1.1 12 17.3 WNW 19 33 10 18 1016.3 1014.0 0.0
21/12:00pm 33.3 29.2 2.2 14 16.1 NW 13 22 7 12 1016.9 1014.7 0.0
21/11:30am 33.0 27.5 2.0 14 16.0 WNW 20 28 11 15 1017.6 1015.3 0.0
21/11:00am 33.4 29.3 2.3 14 16.1 W 13 24 7 13 1018.0 1015.7 0.0
21/10:30am 31.8 27.1 2.9 16 15.0 WSW 17 26 9 14 1018.5 1016.3 0.0
21/10:00am 31.3 26.6 3.4 17 14.6 SW 17 22 9 12 1018.9 1016.7 0.0
21/09:30am 30.6 26.4 3.6 18 14.1 WSW 15 24 8 13 1019.3 1017.1 0.0
21/09:00am 29.5 24.9 3.5 19 13.4 SW 17 24 9 13 1019.3 1017.1 0.0
21/08:30am 28.4 23.3 3.3 20 12.9 WSW 19 26 10 14 1019.3 1017.1 0.0
21/08:00am 26.7 21.4 3.2 22 11.9 WSW 20 28 11 15 1019.2 1017.0 0.0
21/07:30am 22.7 21.2 2.8 27 9.7 CALM 0 0 0 0 1019.0 1016.8 0.0
21/07:00am 20.3 17.3 2.2 30 8.6 SW 7 11 4 6 1018.5 1016.3 0.0
21/06:30am 18.3 16.1 1.3 32 7.8 WSW 2 7 1 4 1018.1 1015.9 0.0
21/06:00am 17.7 14.7 0.8 32 7.6 SSW 6 7 3 4 1018.0 1015.7 0.0
21/05:30am 17.9 14.3 0.6 31 7.8 WSW 9 11 5 6 1017.8 1015.5 0.0
21/05:00am 18.6 15.4 0.7 30 8.1 WSW 7 7 4 4 1017.7 1015.4 0.0
21/04:30am 19.1 15.5 0.7 29 8.4 WSW 9 11 5 6 1017.5 1015.2 0.0
21/04:00am 19.7 16.1 0.7 28 8.7 WSW 9 11 5 6 1017.4 1015.1 0.0
21/03:30am 19.1 15.7 -0.3 27 8.7 WSW 7 11 4 6 1017.2 1015.0 0.0
21/03:00am 19.3 15.9 -0.7 26 8.9 SW 7 9 4 5 1017.1 1014.9 0.0
21/02:30am 20.8 16.7 -0.5 24 9.6 W 11 15 6 8 1017.1 1014.9 0.0
21/02:00am 20.3 16.6 -0.3 25 9.3 W 9 13 5 7 1017.5 1015.2 0.0
21/01:30am 20.5 17.0 -1.3 23 9.7 W 7 9 4 5 1017.6 1015.3 0.0
21/01:00am 22.0 18.6 -0.7 22 10.3 WSW 7 13 4 7 1017.6 1015.3 0.0
21/12:30am 22.5 17.9 -0.9 21 10.7 SW 13 15 7 8 1017.8 1015.5 0.0
21/12:00am 23.8 19.3 -0.5 20 11.3 WSW 13 19 7 10 1017.8 1015.5 0.0
 
Date/Time
WST
Temp
°C
App
Temp
°C
Dew
Point
Rel
Hum
%
Delta-T
°C
Wind Press
QNH
hPa
Press
MSL
hPa
Rain
since 9 am
mm
Dir
 
Spd
km/h
Gust
km/h
Spd
kts
Gust
kts
20/11:30pm 25.7 21.2 -0.4 18 12.3 NW 13 15 7 8 1017.7 1015.4 0.0
20/11:00pm 24.4 20.6 -0.7 19 11.6 NW 9 13 5 7 1017.8 1015.5 0.0
20/10:30pm 25.8 21.6 -1.1 17 12.5 N 11 15 6 8 1017.8 1015.5 0.0
20/10:00pm 25.0 21.3 -0.2 19 11.8 NNW 9 11 5 6 1018.0 1015.7 0.0
20/09:30pm 25.0 21.7 -0.9 18 12.0 NNW 6 9 3 5 1018.2 1016.0 0.0
20/09:00pm 25.5 21.6 -1.3 17 12.4 N 9 9 5 5 1018.3 1016.1 0.0
20/08:30pm 25.7 22.8 -1.2 17 12.5 NNE 4 9 2 5 1018.2 1016.0 0.0
20/08:00pm 27.3 23.5 -0.7 16 13.3 NNE 9 11 5 6 1017.9 1015.6 0.0
20/07:30pm 28.6 25.1 -1.5 14 14.2 NNE 7 9 4 5 1017.4 1015.1 0.0
20/07:00pm 29.1 25.5 -2.1 13 14.6 N 7 9 4 5 1016.9 1014.7 0.0
20/06:30pm 30.5 26.9 -3.3 11 15.7 NNE 6 9 3 5 1016.6 1014.4 0.0

Other Formats:

Comma delimited format used in spreadsheet applications
http://www.bom.gov.au/fwo/IDW60801/IDW60801.94317.axf

JavaScript Object Notation format (JSON) in row-major order
http://www.bom.gov.au/fwo/IDW60801/IDW60801.94317.json